Time;durP1;ratioP1;P1;durP2;ratioP2;P2;SDS_P1;SDS_P2;PMS_P1;PMS_P2;Temp;Humidity;BMP_temperature;BMP_pressure;BME280_temperature;BME280_humidity;BME280_pressure;Samples;Min_cycle;Max_cycle;Signal;HPM_P1;HPM_P2
2021/09/02 00:00:32;;;;;;;8.27;7.47;;;11.90;99.90;;;;;;5062202;28;20623;-80
2021/09/02 00:03:00;;;;;;;8.93;8.03;;;11.80;99.90;;;;;;5052684;28;20678;-80
2021/09/02 00:05:28;;;;;;;8.10;7.30;;;11.80;99.90;;;;;;5064515;28;20626;-80
2021/09/02 00:07:54;;;;;;;16.70;7.90;;;11.80;99.90;;;;;;5047105;28;20927;-80
2021/09/02 00:10:21;;;;;;;8.33;7.53;;;11.70;99.90;;;;;;5052413;28;20615;-80
2021/09/02 00:12:48;;;;;;;9.03;6.80;;;11.80;99.90;;;;;;5063803;28;20646;-80
2021/09/02 00:15:16;;;;;;;8.50;7.70;;;11.80;99.90;;;;;;5056261;28;20653;-80
2021/09/02 00:17:44;;;;;;;8.07;7.37;;;11.80;99.90;;;;;;5057680;28;20639;-79
2021/09/02 00:20:12;;;;;;;9.00;8.07;;;11.70;99.90;;;;;;5053593;28;20618;-79
2021/09/02 00:22:39;;;;;;;8.93;8.03;;;11.70;99.90;;;;;;5071812;28;20623;-80
2021/09/02 00:25:07;;;;;;;9.17;8.37;;;11.70;99.90;;;;;;5071036;28;20614;-80
2021/09/02 00:27:34;;;;;;;8.83;7.80;;;11.60;99.90;;;;;;5068340;28;20746;-79
2021/09/02 00:30:01;;;;;;;8.37;7.63;;;11.60;99.90;;;;;;5072547;28;20609;-79
2021/09/02 00:32:28;;;;;;;8.93;7.83;;;11.60;99.90;;;;;;5055718;28;20622;-79
2021/09/02 00:34:56;;;;;;;8.73;7.87;;;11.50;99.90;;;;;;5063723;28;20626;-79
2021/09/02 00:37:23;;;;;;;7.40;6.73;;;11.50;99.90;;;;;;5065941;28;20618;-79
2021/09/02 00:39:50;;;;;;;7.83;7.10;;;11.50;99.90;;;;;;5067185;28;21026;-79
2021/09/02 00:42:17;;;;;;;7.90;7.10;;;11.40;99.90;;;;;;5052234;28;20614;-79
2021/09/02 00:44:47;;;;;;;8.67;7.23;;;11.40;99.90;;;;;;5052522;28;20672;-79
2021/09/02 00:47:15;;;;;;;7.50;6.67;;;11.40;99.90;;;;;;5063103;28;21271;-79
2021/09/02 00:49:43;;;;;;;7.00;6.40;;;11.30;99.90;;;;;;5065397;28;21186;-79
2021/09/02 00:52:14;;;;;;;6.97;6.37;;;11.30;99.90;;;;;;5060403;28;20743;-79
2021/09/02 00:54:43;;;;;;;6.10;5.60;;;11.30;99.90;;;;;;5051622;28;20664;-79
2021/09/02 00:57:11;;;;;;;7.63;6.93;;;11.30;99.90;;;;;;5052061;28;20627;-79
2021/09/02 00:59:39;;;;;;;6.67;6.03;;;11.20;99.90;;;;;;5051878;28;20718;-80
2021/09/02 01:02:06;;;;;;;7.40;6.70;;;11.30;99.90;;;;;;5066410;28;20617;-79
2021/09/02 01:04:34;;;;;;;7.03;6.40;;;11.20;99.90;;;;;;5063045;28;20634;-79
2021/09/02 01:07:03;;;;;;;6.27;5.67;;;11.20;99.90;;;;;;5056074;28;20714;-79
2021/09/02 01:09:36;;;;;;;7.43;6.70;;;11.20;99.90;;;;;;5071279;28;20682;-79
2021/09/02 01:12:28;;;;;;;6.93;6.10;;;11.10;99.90;;;;;;5066312;28;20672;-80
2021/09/02 01:14:57;;;;;;;7.70;7.00;;;11.10;99.90;;;;;;5056983;28;20639;-80
2021/09/02 01:17:25;;;;;;;8.07;6.50;;;11.10;99.90;;;;;;5050966;28;20653;-80
2021/09/02 01:19:56;;;;;;;7.10;6.40;;;11.00;99.90;;;;;;5066992;28;20681;-79
2021/09/02 01:22:27;;;;;;;7.97;7.17;;;11.00;99.90;;;;;;5067986;28;21048;-79
2021/09/02 01:25:00;;;;;;;8.53;7.60;;;11.00;99.90;;;;;;5066955;28;20630;-79
2021/09/02 01:27:29;;;;;;;10.03;7.00;;;11.00;99.90;;;;;;5050783;28;20716;-79
2021/09/02 01:29:59;;;;;;;8.60;6.70;;;11.00;99.90;;;;;;5057982;28;20629;-79
2021/09/02 01:32:27;;;;;;;7.10;6.40;;;10.90;99.90;;;;;;5069232;28;20613;-79
2021/09/02 01:34:56;;;;;;;8.30;7.30;;;10.90;99.90;;;;;;5062838;28;20621;-79
2021/09/02 01:37:25;;;;;;;7.67;6.77;;;10.90;99.90;;;;;;5056704;28;20626;-79
2021/09/02 01:39:54;;;;;;;7.07;6.47;;;10.90;99.90;;;;;;5050835;28;20629;-79
2021/09/02 01:42:24;;;;;;;7.33;6.60;;;10.90;99.90;;;;;;5067193;28;20649;-79
2021/09/02 01:44:52;;;;;;;7.70;6.73;;;10.90;99.90;;;;;;5070530;28;20642;-79
2021/09/02 01:47:22;;;;;;;8.73;7.60;;;10.80;99.90;;;;;;5055091;28;20694;-79
2021/09/02 01:49:49;;;;;;;8.40;7.00;;;10.80;99.90;;;;;;5069741;28;20634;-79
2021/09/02 01:52:17;;;;;;;8.23;7.40;;;10.80;99.90;;;;;;5052125;28;20622;-79
2021/09/02 01:54:46;;;;;;;7.60;6.90;;;10.90;99.90;;;;;;5069872;28;20637;-79
2021/09/02 01:57:15;;;;;;;7.30;6.60;;;10.80;99.90;;;;;;5070798;28;21174;-79
2021/09/02 01:59:44;;;;;;;9.77;8.00;;;10.80;99.90;;;;;;5050790;28;21073;-79
2021/09/02 02:02:15;;;;;;;8.97;7.70;;;10.80;99.90;;;;;;5050488;28;20626;-79
2021/09/02 02:04:43;;;;;;;8.20;7.50;;;10.80;99.90;;;;;;5059457;28;20633;-79
2021/09/02 02:07:13;;;;;;;8.30;7.50;;;10.80;99.90;;;;;;5069270;28;21194;-79
2021/09/02 02:09:41;;;;;;;9.57;8.03;;;10.80;99.90;;;;;;5070297;28;20636;-79
2021/09/02 02:12:15;;;;;;;9.93;7.80;;;10.70;99.90;;;;;;5069879;28;21087;-79
2021/09/02 02:14:44;;;;;;;9.10;8.30;;;10.80;99.90;;;;;;5068404;28;20626;-79
2021/09/02 02:17:11;;;;;;;8.57;7.80;;;10.80;99.90;;;;;;5069782;28;20795;-79
2021/09/02 02:19:39;;;;;;;10.20;9.20;;;10.70;99.90;;;;;;5068333;28;20632;-79
2021/09/02 02:22:07;;;;;;;9.33;8.50;;;10.70;99.90;;;;;;5054358;28;21575;-79
2021/09/02 02:24:35;;;;;;;9.10;8.10;;;10.60;99.90;;;;;;5043568;28;20646;-79
2021/09/02 02:27:03;;;;;;;9.80;8.33;;;10.60;99.90;;;;;;5050305;28;20618;-79
2021/09/02 02:29:32;;;;;;;8.70;7.93;;;10.50;99.90;;;;;;5067749;28;20621;-79
2021/09/02 02:32:03;;;;;;;7.87;7.13;;;10.50;99.90;;;;;;5056999;28;20672;-79
2021/09/02 02:34:31;;;;;;;8.30;7.50;;;10.50;99.90;;;;;;5054392;28;20626;-79
2021/09/02 02:36:59;;;;;;;8.23;7.43;;;10.50;99.90;;;;;;5064446;28;20693;-79
2021/09/02 02:39:27;;;;;;;9.70;8.50;;;10.50;99.90;;;;;;5069575;28;20626;-79
2021/09/02 02:41:55;;;;;;;9.03;7.67;;;10.50;99.90;;;;;;5057225;28;20691;-79
2021/09/02 02:44:23;;;;;;;10.43;7.77;;;10.50;99.90;;;;;;5049637;28;21059;-79
2021/09/02 02:46:51;;;;;;;8.60;7.77;;;10.50;99.90;;;;;;5060643;28;20633;-79
2021/09/02 02:49:20;;;;;;;9.10;8.17;;;10.50;99.90;;;;;;5069893;28;20625;-79
2021/09/02 02:51:48;;;;;;;11.20;9.23;;;10.40;99.90;;;;;;5058992;28;20622;-79
2021/09/02 02:54:16;;;;;;;9.07;8.13;;;10.50;99.90;;;;;;5049572;28;20737;-79
2021/09/02 02:56:44;;;;;;;11.33;8.60;;;10.40;99.90;;;;;;5066849;28;21078;-79
2021/09/02 02:59:12;;;;;;;11.00;9.70;;;10.30;99.90;;;;;;5069711;28;20760;-79
2021/09/02 03:01:50;;;;;;;9.67;8.70;;;10.30;99.90;;;;;;5068557;28;20633;-79
2021/09/02 03:04:22;;;;;;;8.77;7.90;;;10.20;99.90;;;;;;5060038;28;20617;-79
2021/09/02 03:06:51;;;;;;;10.33;9.33;;;10.20;99.90;;;;;;5081568;28;20987;-79
2021/09/02 03:09:19;;;;;;;8.67;7.67;;;10.20;99.90;;;;;;5081770;28;20629;-78
2021/09/02 03:11:48;;;;;;;8.93;8.00;;;10.30;99.90;;;;;;5068695;28;20734;-78
2021/09/02 03:14:16;;;;;;;8.90;8.10;;;10.20;99.90;;;;;;5062559;28;20619;-78
2021/09/02 03:16:43;;;;;;;10.43;8.80;;;10.30;99.90;;;;;;5049937;28;20619;-78
2021/09/02 03:19:10;;;;;;;9.20;8.30;;;10.30;99.90;;;;;;5053274;28;20714;-78
2021/09/02 03:21:38;;;;;;;11.30;9.37;;;10.40;99.90;;;;;;5070012;28;20624;-78
2021/09/02 03:24:05;;;;;;;10.27;9.27;;;10.20;99.90;;;;;;5068488;28;20625;-79
2021/09/02 03:26:32;;;;;;;10.30;9.20;;;10.20;99.90;;;;;;5048619;28;20649;-79
2021/09/02 03:28:59;;;;;;;9.70;8.03;;;10.20;99.90;;;;;;5048736;28;20618;-79
2021/09/02 03:31:26;;;;;;;9.10;7.53;;;10.20;99.90;;;;;;5048736;28;21148;-79
2021/09/02 03:33:53;;;;;;;8.20;7.37;;;10.10;99.90;;;;;;5043943;28;20700;-79
2021/09/02 03:36:24;;;;;;;8.93;7.97;;;10.10;99.90;;;;;;5058291;28;20627;-81
2021/09/02 03:38:57;;;;;;;9.07;7.87;;;10.10;99.90;;;;;;5057247;28;20743;-81
2021/09/02 03:41:25;;;;;;;8.80;7.13;;;10.10;99.90;;;;;;5049384;28;20637;-80
2021/09/02 03:43:52;;;;;;;9.03;8.13;;;10.10;99.90;;;;;;5066304;28;20629;-80
2021/09/02 03:46:19;;;;;;;9.27;7.93;;;10.10;99.90;;;;;;5071049;28;20621;-80
2021/09/02 03:48:46;;;;;;;10.67;9.30;;;10.10;99.90;;;;;;5052485;28;20636;-80
2021/09/02 03:51:13;;;;;;;12.67;8.17;;;10.10;99.90;;;;;;5055958;28;20722;-79
2021/09/02 03:53:40;;;;;;;10.97;9.87;;;10.10;99.90;;;;;;5066434;28;21700;-80
2021/09/02 03:56:11;;;;;;;10.80;9.67;;;10.10;99.90;;;;;;5069230;28;20656;-79
2021/09/02 03:58:38;;;;;;;11.60;10.40;;;10.00;99.90;;;;;;5072213;28;20718;-79
2021/09/02 04:01:05;;;;;;;11.03;9.90;;;10.00;99.90;;;;;;5065842;28;21043;-79
2021/09/02 04:03:32;;;;;;;11.90;10.50;;;10.00;99.90;;;;;;5052326;28;20606;-79
2021/09/02 04:05:59;;;;;;;13.03;10.23;;;10.00;99.90;;;;;;5068561;28;20653;-79
2021/09/02 04:08:26;;;;;;;13.53;10.90;;;9.90;99.90;;;;;;5072835;28;20683;-79
2021/09/02 04:10:53;;;;;;;9.97;8.27;;;9.90;99.90;;;;;;5072618;28;20679;-79
2021/09/02 04:13:21;;;;;;;11.63;10.40;;;9.90;99.90;;;;;;5072344;28;20632;-80
2021/09/02 04:15:49;;;;;;;11.80;10.67;;;9.90;99.90;;;;;;5070937;28;20980;-80
2021/09/02 04:18:16;;;;;;;12.17;10.60;;;9.90;99.90;;;;;;5067120;28;20660;-79
2021/09/02 04:20:43;;;;;;;12.90;11.17;;;9.90;99.90;;;;;;5052884;28;20674;-79
2021/09/02 04:23:10;;;;;;;10.63;9.53;;;9.90;99.90;;;;;;5053851;28;20637;-79
2021/09/02 04:25:37;;;;;;;11.73;9.47;;;9.90;99.90;;;;;;5064386;28;20726;-80
2021/09/02 04:28:04;;;;;;;10.67;9.57;;;9.90;99.90;;;;;;5071464;28;20724;-80
2021/09/02 04:30:33;;;;;;;11.03;9.90;;;9.90;99.90;;;;;;5057557;28;20634;-80
2021/09/02 04:33:01;;;;;;;10.90;9.50;;;9.90;99.90;;;;;;5058784;28;20633;-79
2021/09/02 04:35:29;;;;;;;11.20;10.10;;;9.80;99.90;;;;;;5071313;28;20621;-79
2021/09/02 04:37:55;;;;;;;12.13;9.77;;;9.90;99.90;;;;;;5056414;28;20695;-79
2021/09/02 04:40:23;;;;;;;11.10;10.00;;;9.80;99.90;;;;;;5072526;28;20617;-79
2021/09/02 04:42:50;;;;;;;10.53;9.53;;;9.80;99.90;;;;;;5070308;28;20613;-79
2021/09/02 04:45:17;;;;;;;12.17;10.83;;;9.80;99.90;;;;;;5071618;28;20683;-79
2021/09/02 04:47:45;;;;;;;9.97;8.93;;;9.90;99.90;;;;;;5059417;28;21186;-79
2021/09/02 04:50:13;;;;;;;11.00;9.30;;;9.90;99.90;;;;;;5064414;28;21178;-79
2021/09/02 04:52:40;;;;;;;10.57;9.37;;;9.80;99.90;;;;;;5071994;28;20618;-79
2021/09/02 04:55:10;;;;;;;10.77;9.40;;;9.70;99.90;;;;;;5069243;28;20630;-79
2021/09/02 04:57:37;;;;;;;11.87;9.97;;;9.70;99.90;;;;;;5069465;28;20621;-79
2021/09/02 05:00:05;;;;;;;11.37;10.17;;;9.80;99.90;;;;;;5063869;28;20668;-79
2021/09/02 05:02:32;;;;;;;10.80;9.60;;;9.90;99.90;;;;;;5052996;28;21065;-79
2021/09/02 05:05:00;;;;;;;11.00;9.97;;;9.90;99.90;;;;;;5071460;28;20678;-79
2021/09/02 05:07:27;;;;;;;11.33;10.10;;;9.80;99.90;;;;;;5061227;28;21186;-79
2021/09/02 05:09:54;;;;;;;17.40;9.20;;;9.90;99.90;;;;;;5063853;28;20688;-80
2021/09/02 05:12:21;;;;;;;10.40;9.37;;;10.00;99.90;;;;;;5070689;28;20625;-79
2021/09/02 05:14:48;;;;;;;10.73;9.67;;;10.00;99.90;;;;;;5070618;28;20668;-79
2021/09/02 05:17:15;;;;;;;18.00;10.27;;;10.00;99.90;;;;;;5064130;28;20655;-79
2021/09/02 05:19:42;;;;;;;13.27;9.93;;;10.00;99.90;;;;;;5056566;28;20666;-79
2021/09/02 05:22:10;;;;;;;13.23;9.53;;;10.00;99.90;;;;;;5070446;28;20662;-79
2021/09/02 05:24:37;;;;;;;12.77;10.67;;;10.00;99.90;;;;;;5066421;28;21096;-79
2021/09/02 05:27:04;;;;;;;12.00;10.27;;;10.00;99.90;;;;;;5070349;28;20645;-79
2021/09/02 05:29:31;;;;;;;10.93;9.83;;;10.00;99.90;;;;;;5063331;28;21198;-80
2021/09/02 05:31:58;;;;;;;11.30;10.13;;;10.10;99.90;;;;;;5051094;28;20627;-80
2021/09/02 05:34:26;;;;;;;13.77;10.50;;;10.20;99.90;;;;;;5056106;28;20650;-80
2021/09/02 05:36:53;;;;;;;11.33;9.27;;;10.20;99.90;;;;;;5056255;28;20626;-80
2021/09/02 05:39:23;;;;;;;12.10;9.37;;;10.20;99.90;;;;;;5068692;28;20752;-80
2021/09/02 05:41:50;;;;;;;9.43;8.40;;;10.40;99.90;;;;;;5045894;28;20634;-79
2021/09/02 05:44:18;;;;;;;13.37;10.50;;;10.50;99.90;;;;;;5047878;28;21244;-79
2021/09/02 05:46:45;;;;;;;11.80;10.60;;;10.40;99.90;;;;;;5056952;28;20663;-79
2021/09/02 05:49:12;;;;;;;11.90;10.07;;;10.50;99.90;;;;;;5053236;28;20680;-80
2021/09/02 05:51:39;;;;;;;12.20;9.53;;;10.60;99.90;;;;;;5059950;28;20709;-80
2021/09/02 05:54:06;;;;;;;15.37;10.47;;;10.70;99.90;;;;;;5068564;28;20721;-80
2021/09/02 05:56:34;;;;;;;11.27;10.07;;;10.70;99.90;;;;;;5068866;28;20652;-80
2021/09/02 05:59:01;;;;;;;14.53;9.80;;;10.80;99.90;;;;;;5068805;28;20661;-80
2021/09/02 06:01:28;;;;;;;12.23;10.07;;;10.90;99.90;;;;;;5069665;28;20649;-81
2021/09/02 06:03:55;;;;;;;11.53;10.40;;;11.00;99.90;;;;;;5063649;28;20630;-81
2021/09/02 06:06:22;;;;;;;12.13;10.80;;;11.10;99.90;;;;;;5062544;28;20622;-81
2021/09/02 06:08:49;;;;;;;14.90;11.23;;;11.20;99.90;;;;;;5054529;28;21174;-81
2021/09/02 06:11:16;;;;;;;11.10;10.00;;;11.30;99.90;;;;;;5070604;28;20649;-81
2021/09/02 06:13:44;;;;;;;12.83;11.50;;;11.40;99.90;;;;;;5062684;28;20686;-81
2021/09/02 06:16:11;;;;;;;15.00;11.37;;;11.50;99.90;;;;;;5066919;28;20657;-81
2021/09/02 06:18:38;;;;;;;13.67;11.30;;;11.60;99.90;;;;;;5068426;28;20995;-82
2021/09/02 06:21:05;;;;;;;14.33;12.80;;;11.70;99.90;;;;;;5063063;28;20720;-81
2021/09/02 06:23:32;;;;;;;16.33;12.83;;;11.80;99.90;;;;;;5061911;28;20678;-81
2021/09/02 06:25:59;;;;;;;12.90;11.57;;;12.00;99.90;;;;;;5069467;28;20624;-81
2021/09/02 06:28:32;;;;;;;16.83;12.10;;;12.00;99.90;;;;;;5052926;28;20635;-81
2021/09/02 06:31:00;;;;;;;13.53;11.70;;;12.20;99.90;;;;;;5052454;28;21009;-81
2021/09/02 06:33:27;;;;;;;12.77;11.50;;;12.30;99.90;;;;;;5058124;28;20652;-81
2021/09/02 06:35:54;;;;;;;15.27;12.20;;;12.50;99.90;;;;;;5058526;28;20708;-81
2021/09/02 06:38:27;;;;;;;14.87;12.47;;;12.50;99.90;;;;;;5065231;28;20722;-82
2021/09/02 06:40:54;;;;;;;14.73;13.23;;;12.50;99.90;;;;;;5056642;28;20639;-81
2021/09/02 06:43:23;;;;;;;16.13;12.33;;;12.60;99.90;;;;;;5051572;28;20634;-81
2021/09/02 06:45:51;;;;;;;13.27;11.80;;;12.50;99.90;;;;;;5061104;28;20620;-80
2021/09/02 06:48:19;;;;;;;14.47;12.23;;;12.60;99.90;;;;;;5066087;28;20620;-80
2021/09/02 06:50:53;;;;;;;14.90;12.73;;;12.70;99.90;;;;;;5064785;28;20628;-81
2021/09/02 06:53:34;;;;;;;14.80;11.50;;;12.90;99.90;;;;;;5059518;28;20625;-82
2021/09/02 06:56:06;;;;;;;14.50;13.10;;;13.10;99.90;;;;;;5062444;28;20636;-81
2021/09/02 06:58:39;;;;;;;11.43;10.43;;;13.30;99.90;;;;;;5064165;28;20677;-80
2021/09/02 07:01:06;;;;;;;10.67;9.53;;;13.30;99.90;;;;;;5069760;28;20644;-80
2021/09/02 07:03:34;;;;;;;11.43;10.17;;;13.40;99.90;;;;;;5068455;28;20621;-80
2021/09/02 07:06:02;;;;;;;11.50;9.63;;;13.50;99.90;;;;;;5068341;28;20683;-80
2021/09/02 07:08:30;;;;;;;14.70;10.50;;;13.80;99.90;;;;;;5069894;28;20651;-80
2021/09/02 07:10:57;;;;;;;10.60;9.60;;;13.90;99.90;;;;;;5064473;28;20624;-80
2021/09/02 07:13:24;;;;;;;11.87;10.77;;;14.00;99.90;;;;;;5058401;28;20615;-80
2021/09/02 07:15:51;;;;;;;11.60;10.13;;;14.10;99.90;;;;;;5066103;28;21054;-80
2021/09/02 07:18:18;;;;;;;10.10;9.00;;;14.20;99.90;;;;;;5069419;28;20626;-80
2021/09/02 07:20:46;;;;;;;11.43;10.23;;;14.40;99.90;;;;;;5068707;28;20612;-80
2021/09/02 07:23:13;;;;;;;12.07;10.90;;;14.40;99.90;;;;;;5064738;28;21229;-80
2021/09/02 07:25:40;;;;;;;11.73;10.10;;;14.30;99.90;;;;;;5065254;28;21229;-81
2021/09/02 07:28:08;;;;;;;12.60;9.97;;;14.50;99.90;;;;;;5056444;28;20605;-82
2021/09/02 07:30:35;;;;;;;10.20;9.20;;;14.70;99.90;;;;;;5073839;28;20617;-81
2021/09/02 07:33:02;;;;;;;10.53;8.53;;;14.90;99.90;;;;;;5068293;28;21174;-81
2021/09/02 07:35:29;;;;;;;10.37;9.37;;;15.10;99.90;;;;;;5056563;28;20618;-80
2021/09/02 07:37:58;;;;;;;9.60;8.70;;;15.20;99.90;;;;;;5062985;28;20736;-80
2021/09/02 07:40:25;;;;;;;10.47;9.37;;;15.40;99.90;;;;;;5061760;28;20649;-80
2021/09/02 07:42:52;;;;;;;10.27;9.20;;;15.40;99.90;;;;;;5073402;28;21165;-81
2021/09/02 07:45:19;;;;;;;10.00;8.90;;;15.50;99.90;;;;;;5073263;28;20613;-81
2021/09/02 07:47:46;;;;;;;11.73;9.53;;;15.60;99.90;;;;;;5073251;28;20614;-80
2021/09/02 07:50:13;;;;;;;9.97;9.07;;;15.60;99.90;;;;;;5070736;28;20628;-81
2021/09/02 07:52:40;;;;;;;9.50;8.60;;;15.90;99.60;;;;;;5072968;28;20647;-81
2021/09/02 07:55:11;;;;;;;9.30;8.40;;;16.00;99.50;;;;;;5071479;28;20621;-81
2021/09/02 07:57:42;;;;;;;9.20;8.17;;;16.10;99.70;;;;;;5072851;28;20631;-81
2021/09/02 08:00:10;;;;;;;8.50;7.60;;;16.10;99.00;;;;;;5072727;28;20760;-80
2021/09/02 08:02:37;;;;;;;11.00;8.50;;;16.20;98.20;;;;;;5072588;28;21284;-80
2021/09/02 08:05:05;;;;;;;11.73;8.53;;;16.30;98.40;;;;;;5072176;28;20698;-80
2021/09/02 08:07:32;;;;;;;8.97;8.10;;;16.50;98.10;;;;;;5072089;28;20963;-82
2021/09/02 08:09:59;;;;;;;9.63;8.73;;;16.60;97.70;;;;;;5072723;28;21202;-81
2021/09/02 08:12:27;;;;;;;8.03;7.33;;;16.60;98.10;;;;;;5072711;28;20619;-81
2021/09/02 08:14:54;;;;;;;9.60;8.27;;;16.60;98.10;;;;;;5071857;28;20665;-80
2021/09/02 08:17:21;;;;;;;9.70;7.80;;;16.70;97.60;;;;;;5068246;28;20645;-80
2021/09/02 08:19:47;;;;;;;8.97;8.07;;;16.80;97.50;;;;;;5072406;28;20646;-80
2021/09/02 08:22:14;;;;;;;8.97;8.00;;;16.90;97.60;;;;;;5069596;28;20609;-81
2021/09/02 08:24:41;;;;;;;9.17;8.10;;;16.90;96.60;;;;;;5071868;28;20617;-81
2021/09/02 08:27:08;;;;;;;8.43;6.70;;;17.00;96.90;;;;;;5072471;28;20653;-81
2021/09/02 08:29:36;;;;;;;8.80;7.47;;;17.10;96.80;;;;;;5071938;28;21192;-81
2021/09/02 08:32:04;;;;;;;8.63;7.47;;;17.30;96.50;;;;;;5071167;28;20618;-81
2021/09/02 08:34:31;;;;;;;8.40;7.70;;;17.30;96.50;;;;;;5071167;28;20615;-80
2021/09/02 08:36:57;;;;;;;9.20;8.30;;;17.50;96.10;;;;;;5069492;28;20933;-80
2021/09/02 08:39:24;;;;;;;10.53;7.80;;;17.50;97.00;;;;;;5069037;28;20699;-81
2021/09/02 08:41:52;;;;;;;7.93;7.23;;;17.60;96.60;;;;;;5072197;28;20716;-80
2021/09/02 08:44:19;;;;;;;8.17;7.37;;;17.60;96.20;;;;;;5071474;28;20683;-80
2021/09/02 08:46:47;;;;;;;10.13;7.00;;;17.80;97.10;;;;;;5071840;28;20667;-81
2021/09/02 08:49:21;;;;;;;8.43;7.60;;;17.90;96.70;;;;;;5070957;28;20716;-80
2021/09/02 08:51:49;;;;;;;9.87;7.77;;;18.00;96.50;;;;;;5072024;28;20737;-80
2021/09/02 08:54:17;;;;;;;9.40;8.37;;;18.10;95.80;;;;;;5071126;28;20617;-80
2021/09/02 08:56:47;;;;;;;8.97;8.17;;;18.20;94.80;;;;;;5072113;28;20628;-81
2021/09/02 08:59:16;;;;;;;8.23;6.73;;;18.20;95.80;;;;;;5071640;28;20688;-81
2021/09/02 09:01:51;;;;;;;9.07;8.20;;;18.40;96.20;;;;;;5069581;28;20608;-82
2021/09/02 09:04:18;;;;;;;8.67;7.73;;;18.40;95.70;;;;;;5071221;28;20639;-80
2021/09/02 09:06:46;;;;;;;9.03;8.13;;;18.40;96.00;;;;;;5071781;28;20635;-80
2021/09/02 09:09:14;;;;;;;7.53;6.83;;;18.50;96.10;;;;;;5082543;28;20624;-81
2021/09/02 09:11:50;;;;;;;8.50;7.70;;;18.40;95.90;;;;;;5072382;28;21004;-83
2021/09/02 09:14:22;;;;;;;8.50;7.67;;;18.50;95.40;;;;;;5070250;28;20663;-83
2021/09/02 09:16:54;;;;;;;8.33;7.53;;;18.70;93.80;;;;;;5071178;28;21055;-82
2021/09/02 09:19:49;;;;;;;9.10;8.03;;;18.90;92.60;;;;;;5071061;28;20752;-83
2021/09/02 09:22:20;;;;;;;8.60;6.87;;;19.00;93.00;;;;;;5071505;28;20609;-83
2021/09/02 09:24:49;;;;;;;8.67;7.53;;;19.10;92.10;;;;;;5064504;28;21163;-83
2021/09/02 09:27:18;;;;;;;7.33;6.63;;;19.10;92.30;;;;;;5059931;28;20675;-83
2021/09/02 09:30:11;;;;;;;7.50;6.80;;;19.10;91.60;;;;;;5060116;28;20809;-81
2021/09/02 09:32:41;;;;;;;8.40;7.13;;;19.30;92.10;;;;;;5060329;28;20639;-81
2021/09/02 09:35:13;;;;;;;8.80;7.97;;;19.20;92.40;;;;;;5062258;28;20617;-83
2021/09/02 09:37:41;;;;;;;8.30;7.50;;;19.30;92.50;;;;;;5061211;28;20653;-81
2021/09/02 09:40:20;;;;;;;10.70;6.50;;;19.50;92.00;;;;;;5058124;28;20693;-82
2021/09/02 09:43:08;;;;;;;8.33;7.23;;;19.50;92.40;;;;;;5051551;28;20670;-80
2021/09/02 09:45:41;;;;;;;8.80;7.90;;;19.60;91.70;;;;;;5048977;28;20714;-83
2021/09/02 09:48:44;;;;;;;8.20;7.40;;;19.70;92.00;;;;;;5050104;28;20621;-82
2021/09/02 09:51:19;;;;;;;7.30;6.17;;;19.80;92.60;;;;;;5058786;28;20715;-81
2021/09/02 09:53:48;;;;;;;8.97;7.20;;;19.90;91.40;;;;;;5054358;28;20704;-83
2021/09/02 09:56:18;;;;;;;7.07;6.47;;;20.10;90.30;;;;;;5055655;28;20618;-82
2021/09/02 09:58:45;;;;;;;7.47;6.67;;;20.10;90.20;;;;;;5057534;28;20627;-81
2021/09/02 10:01:13;;;;;;;6.37;5.87;;;20.30;88.80;;;;;;5057717;28;21300;-78
2021/09/02 10:03:42;;;;;;;6.97;6.00;;;20.20;87.00;;;;;;5064777;28;20727;-77
2021/09/02 10:06:15;;;;;;;7.07;6.47;;;20.20;88.20;;;;;;5060225;28;21155;-79
2021/09/02 10:08:50;;;;;;;13.63;7.47;;;20.20;87.70;;;;;;5062214;28;20617;-78
2021/09/02 10:11:44;;;;;;;6.73;6.00;;;20.30;86.70;;;;;;5059064;28;20613;-77
2021/09/02 10:14:14;;;;;;;7.17;6.47;;;20.30;86.90;;;;;;5069071;28;20609;-76
2021/09/02 10:17:01;;;;;;;8.57;6.53;;;20.30;86.30;;;;;;5067569;28;20616;-81
2021/09/02 10:19:34;;;;;;;7.43;6.73;;;20.50;86.90;;;;;;5048985;28;20643;-78
2021/09/02 10:22:16;;;;;;;10.43;6.40;;;20.70;86.90;;;;;;5059644;28;20631;-78
2021/09/02 10:24:47;;;;;;;7.63;6.93;;;20.80;84.90;;;;;;5048828;28;20623;-76
2021/09/02 10:27:36;;;;;;;8.80;5.77;;;20.80;83.20;;;;;;5048233;28;20747;-76
2021/09/02 10:30:32;;;;;;;7.33;6.67;;;20.80;84.70;;;;;;5049832;28;20616;-75
2021/09/02 10:33:48;;;;;;;7.20;6.50;;;20.90;84.60;;;;;;5053364;28;20627;-78
2021/09/02 10:36:49;;;;;;;6.33;5.73;;;21.00;86.40;;;;;;5069476;28;20623;-77
2021/09/02 10:39:43;;;;;;;7.80;7.10;;;21.10;86.30;;;;;;5048372;28;20740;-80
2021/09/02 10:45:47;;;;;;;9.03;6.40;;;21.20;82.10;;;;;;5055302;28;20672;-80
2021/09/02 10:48:19;;;;;;;7.30;5.90;;;21.30;84.80;;;;;;5055991;28;20615;-77
2021/09/02 10:54:30;;;;;;;6.60;6.00;;;21.50;79.10;;;;;;5047601;28;20626;-83
2021/09/02 10:57:06;;;;;;;6.17;5.63;;;21.70;80.80;;;;;;5059069;28;20735;-82
2021/09/02 11:07:50;;;;;;;6.70;6.10;;;21.80;77.20;;;;;;5059438;28;20608;-80
2021/09/02 11:10:34;;;;;;;6.30;5.80;;;21.90;77.00;;;;;;5050062;28;20648;-79
2021/09/02 11:13:18;;;;;;;6.80;6.10;;;21.90;75.20;;;;;;5055419;28;20635;-79
2021/09/02 11:15:48;;;;;;;6.00;5.40;;;22.10;77.60;;;;;;5051806;28;20628;-81
2021/09/02 11:18:23;;;;;;;5.30;4.90;;;22.10;77.10;;;;;;5053668;28;20673;-79
2021/09/02 11:21:11;;;;;;;5.03;4.53;;;22.20;77.40;;;;;;5055161;28;20649;-81
2021/09/02 11:23:41;;;;;;;5.97;5.47;;;22.50;75.90;;;;;;5049616;28;20666;-80
2021/09/02 11:26:11;;;;;;;5.47;4.87;;;22.60;74.50;;;;;;5049271;28;21039;-81
2021/09/02 11:29:00;;;;;;;5.80;4.57;;;22.60;72.20;;;;;;5047022;28;20694;-78
2021/09/02 11:31:32;;;;;;;5.73;5.07;;;22.80;73.20;;;;;;5057348;28;20630;-78
2021/09/02 11:34:24;;;;;;;5.30;4.80;;;23.00;71.00;;;;;;5054469;28;20634;-82
2021/09/02 11:37:02;;;;;;;6.53;5.43;;;23.10;67.90;;;;;;5050298;28;20636;-81
2021/09/02 11:39:33;;;;;;;6.30;5.00;;;23.40;70.50;;;;;;5057889;28;20628;-83
2021/09/02 11:42:03;;;;;;;5.83;5.23;;;23.60;67.20;;;;;;5059208;28;20658;-83
2021/09/02 11:44:36;;;;;;;6.00;5.10;;;23.70;68.40;;;;;;5060916;28;20965;-83
2021/09/02 11:47:08;;;;;;;5.33;4.93;;;23.90;67.20;;;;;;5059716;28;21252;-81
2021/09/02 11:49:35;;;;;;;5.93;4.50;;;24.20;66.50;;;;;;5055633;28;20618;-82
2021/09/02 11:52:04;;;;;;;6.57;4.40;;;24.60;62.40;;;;;;5057113;28;20634;-82
2021/09/02 11:54:34;;;;;;;5.30;4.77;;;25.00;62.20;;;;;;5057913;28;20628;-83
2021/09/02 11:57:02;;;;;;;6.20;5.53;;;25.30;61.00;;;;;;5051604;28;20688;-83
2021/09/02 11:59:29;;;;;;;4.77;4.33;;;26.20;59.10;;;;;;5060242;28;20624;-83
2021/09/02 12:01:57;;;;;;;5.90;5.30;;;26.70;57.80;;;;;;5066977;28;20626;-84
2021/09/02 12:04:26;;;;;;;4.80;4.40;;;27.30;57.10;;;;;;5057317;28;20646;-84
2021/09/02 12:07:01;;;;;;;5.50;5.00;;;27.20;55.80;;;;;;5058090;28;20720;-85
2021/09/02 12:09:32;;;;;;;5.50;5.03;;;26.40;57.30;;;;;;5061108;28;20692;-83
2021/09/02 12:12:01;;;;;;;4.80;3.80;;;25.90;58.70;;;;;;5055394;28;20661;-84
2021/09/02 12:14:30;;;;;;;5.10;4.63;;;25.40;57.40;;;;;;5071267;28;20650;-80
2021/09/02 12:17:02;;;;;;;5.37;4.97;;;24.80;58.00;;;;;;5072805;28;21033;-83
2021/09/02 12:19:29;;;;;;;5.27;4.53;;;24.20;58.70;;;;;;5083248;28;20637;-81
2021/09/02 12:22:12;;;;;;;5.87;5.37;;;23.80;60.20;;;;;;5072020;28;20621;-79
2021/09/02 12:24:40;;;;;;;7.70;4.80;;;23.70;60.20;;;;;;5067538;28;20614;-79
2021/09/02 12:27:08;;;;;;;5.00;4.60;;;23.80;58.90;;;;;;5068779;28;20626;-83
2021/09/02 12:29:47;;;;;;;7.00;5.03;;;23.20;59.30;;;;;;5066753;28;21221;-83
2021/09/02 12:32:18;;;;;;;8.30;7.00;;;23.10;61.90;;;;;;5071562;28;20681;-83
2021/09/02 12:34:45;;;;;;;6.90;5.30;;;23.10;60.90;;;;;;5071668;28;20617;-84
2021/09/02 12:37:13;;;;;;;6.23;5.63;;;23.00;61.80;;;;;;5072155;28;20663;-80
2021/09/02 12:39:50;;;;;;;5.30;4.90;;;23.10;61.70;;;;;;5072494;28;20622;-82
2021/09/02 12:42:25;;;;;;;5.53;4.80;;;22.90;62.50;;;;;;5072217;28;20632;-83
2021/09/02 12:45:07;;;;;;;5.17;4.47;;;22.90;64.00;;;;;;5073848;28;20990;-80
2021/09/02 12:47:34;;;;;;;5.13;4.40;;;22.80;63.40;;;;;;5072115;28;20628;-81
2021/09/02 12:50:01;;;;;;;5.00;4.47;;;22.60;62.40;;;;;;5064120;28;20674;-82
2021/09/02 12:52:31;;;;;;;5.50;5.00;;;22.60;65.00;;;;;;5060554;28;20679;-81
2021/09/02 12:55:07;;;;;;;5.23;4.73;;;22.70;64.80;;;;;;5056086;28;20629;-81
2021/09/02 12:57:35;;;;;;;5.50;5.00;;;22.80;63.30;;;;;;5057152;28;20614;-77
2021/09/02 13:00:04;;;;;;;5.57;4.50;;;23.30;63.30;;;;;;5059214;28;20641;-81
2021/09/02 13:02:31;;;;;;;6.43;5.83;;;24.30;60.40;;;;;;5060243;28;20626;-84
2021/09/02 13:04:58;;;;;;;5.23;4.73;;;25.80;58.80;;;;;;5057908;28;20653;-78
2021/09/02 13:07:26;;;;;;;6.90;4.70;;;27.30;56.90;;;;;;5062105;28;20638;-81
2021/09/02 13:09:55;;;;;;;7.00;5.60;;;28.80;55.00;;;;;;5056842;28;20657;-79
2021/09/02 13:12:23;;;;;;;4.80;4.50;;;30.10;54.50;;;;;;5051136;28;20654;-83